Conditions actuelles
Couvert




Pression
29.2 (inHG) - 988.92 (mb)
Visibilité

10.0 (km) - 6.2 (miles)
   Température
4  °C
39°F
3  °C
Point de rosée
93  %
 Humidité
   Vitesse du vent
11  km/h
6  kts
7  mph
3.1  m/s
   Direction du vent
 190°
Du Sud
   Données d'aéroport
LFBU
Location Angoulême-Brie-Champniers Airport 6 km (3.73 mi)
Metar :LFBU 041630Z AUTO 19006KT 160V240 9999 OVC008 04/03 Q0989 TEMPO 4000 SHRA BKN008 FEW015CB BKN020TCU
04-12-2020 17:30:00
   Information brute de métar
Le METAR brut est le format le plus répandu dans le monde pour la transmission de données météorologiques d'observation. Il est hautement standardisé par l'Organisation de l'aviation civile internationale (OACI), ce qui lui permet d'être compris dans la plupart des pays.
   API Info
Données fournies par
https://www.checkwx.com/weather/LFBU
   © Info
Les scripts CSS / SVG / PHP ont été développés par weather34.com pour une utilisation dans le modèle weather34 © 2015-2020

Guide Info fourni par Metar-Wikipedia